sensor_id;sensor_type;location;lat;lon;timestamp;P1;durP1;ratioP1;P2;durP2;ratioP2
43664;SDS011;29263;48.172;11.484;2022-12-07T00:02:25;9.63;;;6.40;;
43664;SDS011;29263;48.172;11.484;2022-12-07T00:04:50;7.73;;;6.27;;
43664;SDS011;29263;48.172;11.484;2022-12-07T00:07:16;10.10;;;6.53;;
43664;SDS011;29263;48.172;11.484;2022-12-07T00:09:41;8.60;;;6.13;;
43664;SDS011;29263;48.172;11.484;2022-12-07T00:12:07;8.87;;;6.20;;
43664;SDS011;29263;48.172;11.484;2022-12-07T00:14:33;9.17;;;5.97;;
43664;SDS011;29263;48.172;11.484;2022-12-07T00:16:58;8.50;;;6.17;;
43664;SDS011;29263;48.172;11.484;2022-12-07T00:19:24;9.90;;;6.03;;
43664;SDS011;29263;48.172;11.484;2022-12-07T00:21:50;7.47;;;5.07;;
43664;SDS011;29263;48.172;11.484;2022-12-07T00:24:15;9.90;;;6.90;;
43664;SDS011;29263;48.172;11.484;2022-12-07T00:26:41;7.80;;;5.57;;
43664;SDS011;29263;48.172;11.484;2022-12-07T00:29:13;8.87;;;5.77;;
43664;SDS011;29263;48.172;11.484;2022-12-07T00:31:44;11.37;;;6.50;;
43664;SDS011;29263;48.172;11.484;2022-12-07T00:34:14;7.90;;;5.73;;
43664;SDS011;29263;48.172;11.484;2022-12-07T00:36:41;6.93;;;5.37;;
43664;SDS011;29263;48.172;11.484;2022-12-07T00:39:07;7.13;;;5.40;;
43664;SDS011;29263;48.172;11.484;2022-12-07T00:41:33;8.37;;;5.93;;
43664;SDS011;29263;48.172;11.484;2022-12-07T00:43:59;8.57;;;6.20;;
43664;SDS011;29263;48.172;11.484;2022-12-07T00:46:24;9.10;;;5.90;;
43664;SDS011;29263;48.172;11.484;2022-12-07T00:48:51;8.27;;;5.43;;
43664;SDS011;29263;48.172;11.484;2022-12-07T00:51:19;8.80;;;5.90;;
43664;SDS011;29263;48.172;11.484;2022-12-07T00:53:47;7.50;;;5.22;;
43664;SDS011;29263;48.172;11.484;2022-12-07T00:58:52;9.13;;;6.57;;
43664;SDS011;29263;48.172;11.484;2022-12-07T01:01:18;8.70;;;5.93;;
43664;SDS011;29263;48.172;11.484;2022-12-07T01:03:44;8.07;;;5.83;;
43664;SDS011;29263;48.172;11.484;2022-12-07T01:06:13;8.67;;;6.47;;
43664;SDS011;29263;48.172;11.484;2022-12-07T01:08:42;9.23;;;6.20;;
43664;SDS011;29263;48.172;11.484;2022-12-07T01:11:09;7.23;;;5.60;;
43664;SDS011;29263;48.172;11.484;2022-12-07T01:13:38;8.57;;;5.65;;
43664;SDS011;29263;48.172;11.484;2022-12-07T01:16:04;10.40;;;6.50;;
43664;SDS011;29263;48.172;11.484;2022-12-07T01:18:32;8.53;;;5.87;;
43664;SDS011;29263;48.172;11.484;2022-12-07T01:21:12;10.07;;;5.93;;
43664;SDS011;29263;48.172;11.484;2022-12-07T01:23:42;8.87;;;5.60;;
43664;SDS011;29263;48.172;11.484;2022-12-07T01:26:12;7.53;;;5.37;;
43664;SDS011;29263;48.172;11.484;2022-12-07T01:28:39;7.40;;;5.53;;
43664;SDS011;29263;48.172;11.484;2022-12-07T01:31:07;8.33;;;5.97;;
43664;SDS011;29263;48.172;11.484;2022-12-07T01:33:36;8.07;;;5.40;;
43664;SDS011;29263;48.172;11.484;2022-12-07T01:36:04;8.57;;;5.27;;
43664;SDS011;29263;48.172;11.484;2022-12-07T01:38:31;7.87;;;4.93;;
43664;SDS011;29263;48.172;11.484;2022-12-07T01:40:57;8.97;;;5.33;;
43664;SDS011;29263;48.172;11.484;2022-12-07T01:43:25;8.30;;;6.13;;
43664;SDS011;29263;48.172;11.484;2022-12-07T01:45:54;8.75;;;5.97;;
43664;SDS011;29263;48.172;11.484;2022-12-07T01:48:25;9.20;;;5.50;;
43664;SDS011;29263;48.172;11.484;2022-12-07T01:51:00;7.20;;;5.47;;
43664;SDS011;29263;48.172;11.484;2022-12-07T01:55:55;7.67;;;5.40;;
43664;SDS011;29263;48.172;11.484;2022-12-07T01:58:23;6.90;;;5.40;;
43664;SDS011;29263;48.172;11.484;2022-12-07T02:00:49;9.07;;;6.20;;
43664;SDS011;29263;48.172;11.484;2022-12-07T02:03:22;7.27;;;5.37;;
43664;SDS011;29263;48.172;11.484;2022-12-07T02:05:52;10.73;;;6.23;;
43664;SDS011;29263;48.172;11.484;2022-12-07T02:08:19;8.47;;;5.97;;
43664;SDS011;29263;48.172;11.484;2022-12-07T02:10:45;9.87;;;6.23;;
43664;SDS011;29263;48.172;11.484;2022-12-07T02:13:32;8.97;;;5.90;;
43664;SDS011;29263;48.172;11.484;2022-12-07T02:16:14;7.97;;;5.63;;
43664;SDS011;29263;48.172;11.484;2022-12-07T02:19:09;8.20;;;5.87;;
43664;SDS011;29263;48.172;11.484;2022-12-07T02:22:14;7.83;;;5.47;;
43664;SDS011;29263;48.172;11.484;2022-12-07T02:27:47;8.33;;;5.80;;
43664;SDS011;29263;48.172;11.484;2022-12-07T02:30:21;6.83;;;5.10;;
43664;SDS011;29263;48.172;11.484;2022-12-07T02:35:39;10.43;;;5.63;;
43664;SDS011;29263;48.172;11.484;2022-12-07T02:40:48;8.97;;;5.43;;
43664;SDS011;29263;48.172;11.484;2022-12-07T02:45:51;8.67;;;5.37;;
43664;SDS011;29263;48.172;11.484;2022-12-07T02:48:21;8.30;;;5.57;;
43664;SDS011;29263;48.172;11.484;2022-12-07T02:50:48;8.07;;;5.80;;
43664;SDS011;29263;48.172;11.484;2022-12-07T02:53:31;8.37;;;5.77;;
43664;SDS011;29263;48.172;11.484;2022-12-07T02:55:59;7.77;;;5.03;;
43664;SDS011;29263;48.172;11.484;2022-12-07T03:01:25;7.73;;;5.63;;
43664;SDS011;29263;48.172;11.484;2022-12-07T03:03:58;7.90;;;5.57;;
43664;SDS011;29263;48.172;11.484;2022-12-07T03:06:40;8.60;;;5.77;;
43664;SDS011;29263;48.172;11.484;2022-12-07T03:09:17;8.17;;;5.50;;
43664;SDS011;29263;48.172;11.484;2022-12-07T03:11:50;8.60;;;6.43;;
43664;SDS011;29263;48.172;11.484;2022-12-07T03:14:26;8.73;;;5.37;;
43664;SDS011;29263;48.172;11.484;2022-12-07T03:17:02;9.40;;;6.90;;
43664;SDS011;29263;48.172;11.484;2022-12-07T03:19:32;7.80;;;5.83;;
43664;SDS011;29263;48.172;11.484;2022-12-07T03:22:02;8.50;;;5.57;;
43664;SDS011;29263;48.172;11.484;2022-12-07T03:24:40;8.03;;;6.17;;
43664;SDS011;29263;48.172;11.484;2022-12-07T03:27:12;9.27;;;6.30;;
43664;SDS011;29263;48.172;11.484;2022-12-07T03:29:46;7.57;;;5.50;;
43664;SDS011;29263;48.172;11.484;2022-12-07T03:35:03;8.67;;;6.37;;
43664;SDS011;29263;48.172;11.484;2022-12-07T03:38:05;10.57;;;6.30;;
43664;SDS011;29263;48.172;11.484;2022-12-07T03:40:53;10.88;;;7.28;;
43664;SDS011;29263;48.172;11.484;2022-12-07T03:43:23;8.63;;;5.97;;
43664;SDS011;29263;48.172;11.484;2022-12-07T03:46:05;8.67;;;6.37;;
43664;SDS011;29263;48.172;11.484;2022-12-07T03:48:46;9.30;;;6.87;;
43664;SDS011;29263;48.172;11.484;2022-12-07T03:51:25;10.60;;;6.17;;
43664;SDS011;29263;48.172;11.484;2022-12-07T03:54:00;8.17;;;5.47;;
43664;SDS011;29263;48.172;11.484;2022-12-07T03:56:32;8.50;;;5.60;;
43664;SDS011;29263;48.172;11.484;2022-12-07T03:58:59;9.00;;;6.40;;
43664;SDS011;29263;48.172;11.484;2022-12-07T04:01:25;10.90;;;6.27;;
43664;SDS011;29263;48.172;11.484;2022-12-07T04:03:52;11.23;;;6.40;;
43664;SDS011;29263;48.172;11.484;2022-12-07T04:06:17;9.73;;;6.50;;
43664;SDS011;29263;48.172;11.484;2022-12-07T04:08:43;8.70;;;6.27;;
43664;SDS011;29263;48.172;11.484;2022-12-07T04:11:09;9.00;;;6.43;;
43664;SDS011;29263;48.172;11.484;2022-12-07T04:13:34;7.93;;;6.03;;
43664;SDS011;29263;48.172;11.484;2022-12-07T04:16:20;9.40;;;6.80;;
43664;SDS011;29263;48.172;11.484;2022-12-07T04:18:45;8.97;;;6.30;;
43664;SDS011;29263;48.172;11.484;2022-12-07T04:21:11;10.20;;;6.87;;
43664;SDS011;29263;48.172;11.484;2022-12-07T04:23:37;10.27;;;7.17;;
43664;SDS011;29263;48.172;11.484;2022-12-07T04:26:02;8.27;;;6.07;;
43664;SDS011;29263;48.172;11.484;2022-12-07T04:28:28;7.10;;;5.67;;
43664;SDS011;29263;48.172;11.484;2022-12-07T04:30:53;10.37;;;6.67;;
43664;SDS011;29263;48.172;11.484;2022-12-07T04:33:19;9.47;;;6.67;;
43664;SDS011;29263;48.172;11.484;2022-12-07T04:35:44;9.10;;;6.57;;
43664;SDS011;29263;48.172;11.484;2022-12-07T04:38:10;8.83;;;6.03;;
43664;SDS011;29263;48.172;11.484;2022-12-07T04:40:36;9.33;;;6.20;;
43664;SDS011;29263;48.172;11.484;2022-12-07T04:43:01;8.67;;;6.23;;
43664;SDS011;29263;48.172;11.484;2022-12-07T04:45:27;8.20;;;6.07;;
43664;SDS011;29263;48.172;11.484;2022-12-07T04:47:52;9.70;;;7.17;;
43664;SDS011;29263;48.172;11.484;2022-12-07T04:50:18;9.70;;;6.13;;
43664;SDS011;29263;48.172;11.484;2022-12-07T04:52:44;9.00;;;5.90;;
43664;SDS011;29263;48.172;11.484;2022-12-07T04:55:09;8.93;;;6.10;;
43664;SDS011;29263;48.172;11.484;2022-12-07T04:57:35;9.57;;;6.73;;
43664;SDS011;29263;48.172;11.484;2022-12-07T05:00:00;9.63;;;7.03;;
43664;SDS011;29263;48.172;11.484;2022-12-07T05:02:26;8.60;;;6.47;;
43664;SDS011;29263;48.172;11.484;2022-12-07T05:04:52;10.20;;;6.50;;
43664;SDS011;29263;48.172;11.484;2022-12-07T05:07:17;8.73;;;6.30;;
43664;SDS011;29263;48.172;11.484;2022-12-07T05:09:43;8.30;;;6.13;;
43664;SDS011;29263;48.172;11.484;2022-12-07T05:12:09;11.00;;;6.53;;
43664;SDS011;29263;48.172;11.484;2022-12-07T05:14:34;9.43;;;6.20;;
43664;SDS011;29263;48.172;11.484;2022-12-07T05:17:00;9.33;;;6.53;;
43664;SDS011;29263;48.172;11.484;2022-12-07T05:19:25;10.27;;;6.93;;
43664;SDS011;29263;48.172;11.484;2022-12-07T05:21:51;9.23;;;6.73;;
43664;SDS011;29263;48.172;11.484;2022-12-07T05:24:17;11.60;;;7.30;;
43664;SDS011;29263;48.172;11.484;2022-12-07T05:26:43;9.23;;;6.67;;
43664;SDS011;29263;48.172;11.484;2022-12-07T05:29:11;9.50;;;6.33;;
43664;SDS011;29263;48.172;11.484;2022-12-07T05:31:38;9.45;;;6.70;;
43664;SDS011;29263;48.172;11.484;2022-12-07T05:34:04;11.20;;;7.00;;
43664;SDS011;29263;48.172;11.484;2022-12-07T05:36:30;9.13;;;6.80;;
43664;SDS011;29263;48.172;11.484;2022-12-07T05:38:56;8.90;;;6.60;;
43664;SDS011;29263;48.172;11.484;2022-12-07T05:41:23;11.13;;;7.57;;
43664;SDS011;29263;48.172;11.484;2022-12-07T05:44:07;10.83;;;7.53;;
43664;SDS011;29263;48.172;11.484;2022-12-07T05:46:33;12.07;;;7.70;;
43664;SDS011;29263;48.172;11.484;2022-12-07T05:48:59;10.93;;;7.43;;
43664;SDS011;29263;48.172;11.484;2022-12-07T05:51:25;12.60;;;7.90;;
43664;SDS011;29263;48.172;11.484;2022-12-07T05:53:51;10.17;;;7.20;;
43664;SDS011;29263;48.172;11.484;2022-12-07T05:56:17;9.83;;;6.70;;
43664;SDS011;29263;48.172;11.484;2022-12-07T05:58:42;11.07;;;7.67;;
43664;SDS011;29263;48.172;11.484;2022-12-07T06:01:26;10.90;;;7.53;;
43664;SDS011;29263;48.172;11.484;2022-12-07T06:03:52;10.87;;;6.90;;
43664;SDS011;29263;48.172;11.484;2022-12-07T06:06:18;12.20;;;7.23;;
43664;SDS011;29263;48.172;11.484;2022-12-07T06:08:43;11.07;;;7.57;;
43664;SDS011;29263;48.172;11.484;2022-12-07T06:11:09;11.83;;;7.90;;
43664;SDS011;29263;48.172;11.484;2022-12-07T06:13:53;9.60;;;7.63;;
43664;SDS011;29263;48.172;11.484;2022-12-07T06:16:19;9.23;;;6.97;;
43664;SDS011;29263;48.172;11.484;2022-12-07T06:18:44;11.37;;;7.27;;
43664;SDS011;29263;48.172;11.484;2022-12-07T06:21:10;11.33;;;7.13;;
43664;SDS011;29263;48.172;11.484;2022-12-07T06:23:35;9.43;;;7.07;;
43664;SDS011;29263;48.172;11.484;2022-12-07T06:26:01;10.97;;;6.80;;
43664;SDS011;29263;48.172;11.484;2022-12-07T06:28:27;10.53;;;7.50;;
43664;SDS011;29263;48.172;11.484;2022-12-07T06:30:58;10.00;;;6.97;;
43664;SDS011;29263;48.172;11.484;2022-12-07T06:33:25;11.13;;;7.33;;
43664;SDS011;29263;48.172;11.484;2022-12-07T06:35:50;10.90;;;7.07;;
43664;SDS011;29263;48.172;11.484;2022-12-07T06:38:16;11.77;;;8.10;;
43664;SDS011;29263;48.172;11.484;2022-12-07T06:40:42;11.40;;;7.83;;
43664;SDS011;29263;48.172;11.484;2022-12-07T06:43:07;11.97;;;7.50;;
43664;SDS011;29263;48.172;11.484;2022-12-07T06:45:33;11.37;;;7.70;;
43664;SDS011;29263;48.172;11.484;2022-12-07T06:47:59;11.67;;;7.30;;
43664;SDS011;29263;48.172;11.484;2022-12-07T06:50:24;9.67;;;7.03;;
43664;SDS011;29263;48.172;11.484;2022-12-07T06:52:51;11.53;;;8.80;;
43664;SDS011;29263;48.172;11.484;2022-12-07T06:55:17;14.97;;;8.07;;
43664;SDS011;29263;48.172;11.484;2022-12-07T06:57:43;10.20;;;7.00;;
43664;SDS011;29263;48.172;11.484;2022-12-07T07:00:08;10.47;;;8.00;;
43664;SDS011;29263;48.172;11.484;2022-12-07T07:02:34;10.63;;;7.90;;
43664;SDS011;29263;48.172;11.484;2022-12-07T07:05:00;9.80;;;7.17;;
43664;SDS011;29263;48.172;11.484;2022-12-07T07:07:26;10.93;;;7.70;;
43664;SDS011;29263;48.172;11.484;2022-12-07T07:09:52;13.00;;;7.97;;
43664;SDS011;29263;48.172;11.484;2022-12-07T07:12:17;12.37;;;7.70;;
43664;SDS011;29263;48.172;11.484;2022-12-07T07:14:43;11.70;;;8.00;;
43664;SDS011;29263;48.172;11.484;2022-12-07T07:17:08;10.90;;;7.70;;
43664;SDS011;29263;48.172;11.484;2022-12-07T07:19:34;11.77;;;8.33;;
43664;SDS011;29263;48.172;11.484;2022-12-07T07:22:00;12.97;;;8.47;;
43664;SDS011;29263;48.172;11.484;2022-12-07T07:24:25;10.90;;;7.93;;
43664;SDS011;29263;48.172;11.484;2022-12-07T07:26:51;12.50;;;8.23;;
43664;SDS011;29263;48.172;11.484;2022-12-07T07:29:16;14.30;;;8.53;;
43664;SDS011;29263;48.172;11.484;2022-12-07T07:31:42;13.23;;;8.63;;
43664;SDS011;29263;48.172;11.484;2022-12-07T07:34:08;10.30;;;7.77;;
43664;SDS011;29263;48.172;11.484;2022-12-07T07:36:33;11.73;;;8.20;;
43664;SDS011;29263;48.172;11.484;2022-12-07T07:38:59;15.00;;;8.67;;
43664;SDS011;29263;48.172;11.484;2022-12-07T07:41:24;13.10;;;8.93;;
43664;SDS011;29263;48.172;11.484;2022-12-07T07:43:50;12.63;;;9.03;;
43664;SDS011;29263;48.172;11.484;2022-12-07T07:46:15;12.50;;;8.77;;
43664;SDS011;29263;48.172;11.484;2022-12-07T07:48:41;12.27;;;8.57;;
43664;SDS011;29263;48.172;11.484;2022-12-07T07:51:07;12.93;;;9.80;;
43664;SDS011;29263;48.172;11.484;2022-12-07T07:53:33;13.60;;;8.57;;
43664;SDS011;29263;48.172;11.484;2022-12-07T07:55:59;11.37;;;7.93;;
43664;SDS011;29263;48.172;11.484;2022-12-07T07:58:24;15.00;;;9.63;;
43664;SDS011;29263;48.172;11.484;2022-12-07T08:00:50;12.77;;;8.90;;
43664;SDS011;29263;48.172;11.484;2022-12-07T08:03:16;15.27;;;9.13;;
43664;SDS011;29263;48.172;11.484;2022-12-07T08:05:42;12.07;;;9.23;;
43664;SDS011;29263;48.172;11.484;2022-12-07T08:08:07;15.27;;;9.60;;
43664;SDS011;29263;48.172;11.484;2022-12-07T08:10:33;13.60;;;8.33;;
43664;SDS011;29263;48.172;11.484;2022-12-07T08:13:00;15.33;;;10.00;;
43664;SDS011;29263;48.172;11.484;2022-12-07T08:15:43;17.75;;;10.15;;
43664;SDS011;29263;48.172;11.484;2022-12-07T08:18:10;14.63;;;9.50;;
43664;SDS011;29263;48.172;11.484;2022-12-07T08:20:37;14.50;;;9.17;;
43664;SDS011;29263;48.172;11.484;2022-12-07T08:23:03;14.77;;;9.43;;
43664;SDS011;29263;48.172;11.484;2022-12-07T08:25:29;15.80;;;9.53;;
43664;SDS011;29263;48.172;11.484;2022-12-07T08:27:55;13.77;;;9.63;;
43664;SDS011;29263;48.172;11.484;2022-12-07T08:30:20;18.37;;;10.10;;
43664;SDS011;29263;48.172;11.484;2022-12-07T08:32:47;13.83;;;9.53;;
43664;SDS011;29263;48.172;11.484;2022-12-07T08:35:13;14.53;;;9.40;;
43664;SDS011;29263;48.172;11.484;2022-12-07T08:37:39;14.30;;;9.73;;
43664;SDS011;29263;48.172;11.484;2022-12-07T08:40:06;14.33;;;9.83;;
43664;SDS011;29263;48.172;11.484;2022-12-07T08:42:33;13.77;;;8.83;;
43664;SDS011;29263;48.172;11.484;2022-12-07T08:45:09;14.30;;;8.70;;
43664;SDS011;29263;48.172;11.484;2022-12-07T08:47:37;16.47;;;9.73;;
43664;SDS011;29263;48.172;11.484;2022-12-07T08:50:09;12.20;;;8.57;;
43664;SDS011;29263;48.172;11.484;2022-12-07T08:52:36;12.77;;;8.77;;
43664;SDS011;29263;48.172;11.484;2022-12-07T08:55:03;12.83;;;9.50;;
43664;SDS011;29263;48.172;11.484;2022-12-07T08:57:29;13.37;;;8.87;;
43664;SDS011;29263;48.172;11.484;2022-12-07T08:59:57;13.43;;;8.30;;
43664;SDS011;29263;48.172;11.484;2022-12-07T09:02:23;12.93;;;8.20;;
43664;SDS011;29263;48.172;11.484;2022-12-07T09:04:49;12.83;;;8.47;;
43664;SDS011;29263;48.172;11.484;2022-12-07T09:07:14;12.43;;;8.50;;
43664;SDS011;29263;48.172;11.484;2022-12-07T09:09:41;12.03;;;7.83;;
43664;SDS011;29263;48.172;11.484;2022-12-07T09:12:06;12.07;;;7.90;;
43664;SDS011;29263;48.172;11.484;2022-12-07T09:14:32;12.30;;;8.47;;
43664;SDS011;29263;48.172;11.484;2022-12-07T09:17:10;12.10;;;7.77;;
43664;SDS011;29263;48.172;11.484;2022-12-07T09:19:37;12.45;;;7.90;;
43664;SDS011;29263;48.172;11.484;2022-12-07T09:22:03;11.53;;;8.10;;
43664;SDS011;29263;48.172;11.484;2022-12-07T09:24:30;13.83;;;8.17;;
43664;SDS011;29263;48.172;11.484;2022-12-07T09:26:57;11.37;;;8.00;;
43664;SDS011;29263;48.172;11.484;2022-12-07T09:29:23;12.07;;;8.13;;
43664;SDS011;29263;48.172;11.484;2022-12-07T09:31:49;9.93;;;7.33;;
43664;SDS011;29263;48.172;11.484;2022-12-07T09:34:14;10.87;;;8.03;;
43664;SDS011;29263;48.172;11.484;2022-12-07T09:36:40;11.60;;;7.90;;
43664;SDS011;29263;48.172;11.484;2022-12-07T09:39:07;11.43;;;7.63;;
43664;SDS011;29263;48.172;11.484;2022-12-07T09:41:39;11.27;;;7.47;;
43664;SDS011;29263;48.172;11.484;2022-12-07T09:44:10;12.37;;;8.20;;
43664;SDS011;29263;48.172;11.484;2022-12-07T09:46:43;12.73;;;8.00;;
43664;SDS011;29263;48.172;11.484;2022-12-07T09:49:14;13.00;;;8.17;;
43664;SDS011;29263;48.172;11.484;2022-12-07T09:51:43;11.23;;;7.60;;
43664;SDS011;29263;48.172;11.484;2022-12-07T09:54:12;12.37;;;8.07;;
43664;SDS011;29263;48.172;11.484;2022-12-07T09:56:39;11.23;;;7.60;;
43664;SDS011;29263;48.172;11.484;2022-12-07T09:59:05;10.87;;;7.40;;
43664;SDS011;29263;48.172;11.484;2022-12-07T10:01:31;11.67;;;8.40;;
43664;SDS011;29263;48.172;11.484;2022-12-07T10:06:38;10.87;;;7.33;;
43664;SDS011;29263;48.172;11.484;2022-12-07T10:09:14;11.23;;;7.37;;
43664;SDS011;29263;48.172;11.484;2022-12-07T10:14:17;10.90;;;7.20;;
43664;SDS011;29263;48.172;11.484;2022-12-07T10:16:43;11.20;;;7.37;;
43664;SDS011;29263;48.172;11.484;2022-12-07T10:19:19;9.33;;;6.77;;
43664;SDS011;29263;48.172;11.484;2022-12-07T10:24:40;10.50;;;7.63;;
43664;SDS011;29263;48.172;11.484;2022-12-07T10:27:29;10.27;;;6.60;;
43664;SDS011;29263;48.172;11.484;2022-12-07T10:29:56;9.43;;;6.55;;
43664;SDS011;29263;48.172;11.484;2022-12-07T10:32:33;9.60;;;6.47;;
43664;SDS011;29263;48.172;11.484;2022-12-07T10:35:20;7.53;;;5.23;;
43664;SDS011;29263;48.172;11.484;2022-12-07T10:37:56;9.20;;;6.50;;
43664;SDS011;29263;48.172;11.484;2022-12-07T10:43:03;10.60;;;6.17;;
43664;SDS011;29263;48.172;11.484;2022-12-07T10:45:34;11.60;;;6.27;;
43664;SDS011;29263;48.172;11.484;2022-12-07T10:50:41;7.80;;;5.70;;
43664;SDS011;29263;48.172;11.484;2022-12-07T10:58:31;7.43;;;5.03;;
43664;SDS011;29263;48.172;11.484;2022-12-07T11:03:55;6.03;;;4.77;;
43664;SDS011;29263;48.172;11.484;2022-12-07T11:17:20;6.93;;;4.47;;
43664;SDS011;29263;48.172;11.484;2022-12-07T11:20:12;7.17;;;4.07;;
43664;SDS011;29263;48.172;11.484;2022-12-07T11:33:57;5.97;;;4.10;;
43664;SDS011;29263;48.172;11.484;2022-12-07T11:41:48;5.07;;;3.50;;
43664;SDS011;29263;48.172;11.484;2022-12-07T11:44:32;5.50;;;3.83;;
43664;SDS011;29263;48.172;11.484;2022-12-07T11:47:38;6.30;;;4.00;;
43664;SDS011;29263;48.172;11.484;2022-12-07T11:50:26;5.43;;;3.60;;
43664;SDS011;29263;48.172;11.484;2022-12-07T12:01:22;5.63;;;3.67;;
43664;SDS011;29263;48.172;11.484;2022-12-07T12:06:42;5.57;;;3.80;;
43664;SDS011;29263;48.172;11.484;2022-12-07T12:17:45;6.67;;;4.30;;
43664;SDS011;29263;48.172;11.484;2022-12-07T12:20:35;6.93;;;4.32;;
43664;SDS011;29263;48.172;11.484;2022-12-07T12:23:27;6.17;;;4.13;;
43664;SDS011;29263;48.172;11.484;2022-12-07T12:25:55;6.33;;;4.17;;
43664;SDS011;29263;48.172;11.484;2022-12-07T12:28:29;7.20;;;4.47;;
43664;SDS011;29263;48.172;11.484;2022-12-07T12:31:04;6.87;;;4.70;;
43664;SDS011;29263;48.172;11.484;2022-12-07T12:33:32;7.43;;;5.03;;
43664;SDS011;29263;48.172;11.484;2022-12-07T12:37:00;8.70;;;5.17;;
43664;SDS011;29263;48.172;11.484;2022-12-07T12:44:01;6.50;;;4.67;;
43664;SDS011;29263;48.172;11.484;2022-12-07T12:51:50;5.17;;;3.67;;
43664;SDS011;29263;48.172;11.484;2022-12-07T12:54:24;9.60;;;5.10;;
43664;SDS011;29263;48.172;11.484;2022-12-07T12:56:57;6.72;;;4.63;;
43664;SDS011;29263;48.172;11.484;2022-12-07T12:59:35;7.80;;;4.60;;
43664;SDS011;29263;48.172;11.484;2022-12-07T13:04:51;7.37;;;4.40;;
43664;SDS011;29263;48.172;11.484;2022-12-07T13:18:14;7.40;;;4.77;;
43664;SDS011;29263;48.172;11.484;2022-12-07T13:23:38;7.23;;;4.83;;
43664;SDS011;29263;48.172;11.484;2022-12-07T13:26:23;7.47;;;5.15;;
43664;SDS011;29263;48.172;11.484;2022-12-07T13:29:11;9.00;;;5.50;;
43664;SDS011;29263;48.172;11.484;2022-12-07T13:39:46;7.83;;;4.87;;
43664;SDS011;29263;48.172;11.484;2022-12-07T13:42:33;6.80;;;4.35;;
43664;SDS011;29263;48.172;11.484;2022-12-07T13:45:00;7.20;;;4.50;;
43664;SDS011;29263;48.172;11.484;2022-12-07T13:47:48;6.67;;;4.63;;
43664;SDS011;29263;48.172;11.484;2022-12-07T13:50:23;7.33;;;4.63;;
43664;SDS011;29263;48.172;11.484;2022-12-07T13:52:54;7.67;;;5.03;;
43664;SDS011;29263;48.172;11.484;2022-12-07T13:55:21;7.30;;;4.80;;
43664;SDS011;29263;48.172;11.484;2022-12-07T13:57:47;7.87;;;5.00;;
43664;SDS011;29263;48.172;11.484;2022-12-07T14:00:20;6.53;;;4.33;;
43664;SDS011;29263;48.172;11.484;2022-12-07T14:05:28;8.32;;;5.15;;
43664;SDS011;29263;48.172;11.484;2022-12-07T14:07:58;6.80;;;4.97;;
43664;SDS011;29263;48.172;11.484;2022-12-07T14:10:30;6.77;;;4.37;;
43664;SDS011;29263;48.172;11.484;2022-12-07T14:13:01;5.53;;;4.00;;
43664;SDS011;29263;48.172;11.484;2022-12-07T14:15:29;8.53;;;4.83;;
43664;SDS011;29263;48.172;11.484;2022-12-07T14:17:57;7.23;;;4.57;;
43664;SDS011;29263;48.172;11.484;2022-12-07T14:20:35;5.90;;;3.97;;
43664;SDS011;29263;48.172;11.484;2022-12-07T14:23:01;7.63;;;4.10;;
43664;SDS011;29263;48.172;11.484;2022-12-07T14:25:44;5.83;;;3.40;;
43664;SDS011;29263;48.172;11.484;2022-12-07T14:28:33;5.50;;;3.33;;
43664;SDS011;29263;48.172;11.484;2022-12-07T14:31:01;5.73;;;3.43;;
43664;SDS011;29263;48.172;11.484;2022-12-07T14:33:28;6.63;;;3.53;;
43664;SDS011;29263;48.172;11.484;2022-12-07T14:35:53;7.40;;;3.60;;
43664;SDS011;29263;48.172;11.484;2022-12-07T14:38:23;4.77;;;3.30;;
43664;SDS011;29263;48.172;11.484;2022-12-07T14:40:53;5.90;;;3.60;;
43664;SDS011;29263;48.172;11.484;2022-12-07T14:45:45;5.07;;;3.10;;
43664;SDS011;29263;48.172;11.484;2022-12-07T14:48:11;6.60;;;3.77;;
43664;SDS011;29263;48.172;11.484;2022-12-07T14:50:40;5.27;;;3.03;;
43664;SDS011;29263;48.172;11.484;2022-12-07T14:53:10;4.17;;;3.00;;
43664;SDS011;29263;48.172;11.484;2022-12-07T14:55:42;8.63;;;4.47;;
43664;SDS011;29263;48.172;11.484;2022-12-07T14:58:14;6.53;;;3.70;;
43664;SDS011;29263;48.172;11.484;2022-12-07T15:00:41;6.23;;;3.90;;
43664;SDS011;29263;48.172;11.484;2022-12-07T15:03:06;8.87;;;4.13;;
43664;SDS011;29263;48.172;11.484;2022-12-07T15:05:32;7.60;;;4.67;;
43664;SDS011;29263;48.172;11.484;2022-12-07T15:07:59;5.70;;;4.10;;
43664;SDS011;29263;48.172;11.484;2022-12-07T15:10:26;7.43;;;3.97;;
43664;SDS011;29263;48.172;11.484;2022-12-07T15:13:00;8.13;;;4.53;;
43664;SDS011;29263;48.172;11.484;2022-12-07T15:15:47;7.00;;;4.82;;
43664;SDS011;29263;48.172;11.484;2022-12-07T15:18:14;7.77;;;4.67;;
43664;SDS011;29263;48.172;11.484;2022-12-07T15:20:40;11.70;;;7.13;;
43664;SDS011;29263;48.172;11.484;2022-12-07T15:23:06;7.33;;;5.23;;
43664;SDS011;29263;48.172;11.484;2022-12-07T15:25:32;6.90;;;4.37;;
43664;SDS011;29263;48.172;11.484;2022-12-07T15:27:58;7.03;;;4.30;;
43664;SDS011;29263;48.172;11.484;2022-12-07T15:30:24;11.90;;;4.50;;
43664;SDS011;29263;48.172;11.484;2022-12-07T15:32:50;6.33;;;4.07;;
43664;SDS011;29263;48.172;11.484;2022-12-07T15:35:16;11.67;;;4.50;;
43664;SDS011;29263;48.172;11.484;2022-12-07T15:37:41;6.63;;;3.90;;
43664;SDS011;29263;48.172;11.484;2022-12-07T15:40:07;5.00;;;3.57;;
43664;SDS011;29263;48.172;11.484;2022-12-07T15:42:34;5.97;;;3.90;;
43664;SDS011;29263;48.172;11.484;2022-12-07T15:45:00;7.87;;;4.00;;
43664;SDS011;29263;48.172;11.484;2022-12-07T15:47:39;6.27;;;3.83;;
43664;SDS011;29263;48.172;11.484;2022-12-07T15:50:07;7.27;;;3.70;;
43664;SDS011;29263;48.172;11.484;2022-12-07T15:52:35;6.75;;;4.28;;
43664;SDS011;29263;48.172;11.484;2022-12-07T15:55:01;7.00;;;4.50;;
43664;SDS011;29263;48.172;11.484;2022-12-07T15:57:31;7.75;;;4.75;;
43664;SDS011;29263;48.172;11.484;2022-12-07T15:59:57;11.10;;;6.10;;
43664;SDS011;29263;48.172;11.484;2022-12-07T16:02:24;7.97;;;4.97;;
43664;SDS011;29263;48.172;11.484;2022-12-07T16:04:50;6.97;;;4.57;;
43664;SDS011;29263;48.172;11.484;2022-12-07T16:07:16;7.07;;;4.40;;
43664;SDS011;29263;48.172;11.484;2022-12-07T16:09:42;8.33;;;5.03;;
43664;SDS011;29263;48.172;11.484;2022-12-07T16:12:09;7.50;;;5.23;;
43664;SDS011;29263;48.172;11.484;2022-12-07T16:14:35;8.70;;;5.97;;
43664;SDS011;29263;48.172;11.484;2022-12-07T16:17:01;12.57;;;6.67;;
43664;SDS011;29263;48.172;11.484;2022-12-07T16:19:27;9.70;;;5.90;;
43664;SDS011;29263;48.172;11.484;2022-12-07T16:21:53;10.10;;;6.83;;
43664;SDS011;29263;48.172;11.484;2022-12-07T16:24:18;12.43;;;7.50;;
43664;SDS011;29263;48.172;11.484;2022-12-07T16:26:44;12.40;;;7.57;;
43664;SDS011;29263;48.172;11.484;2022-12-07T16:29:13;9.23;;;6.27;;
43664;SDS011;29263;48.172;11.484;2022-12-07T16:31:39;12.75;;;7.63;;
43664;SDS011;29263;48.172;11.484;2022-12-07T16:34:05;13.07;;;6.30;;
43664;SDS011;29263;48.172;11.484;2022-12-07T16:36:32;14.77;;;8.33;;
43664;SDS011;29263;48.172;11.484;2022-12-07T16:38:58;14.00;;;8.97;;
43664;SDS011;29263;48.172;11.484;2022-12-07T16:41:25;17.23;;;10.00;;
43664;SDS011;29263;48.172;11.484;2022-12-07T16:43:51;14.87;;;9.27;;
43664;SDS011;29263;48.172;11.484;2022-12-07T16:46:16;17.47;;;9.50;;
43664;SDS011;29263;48.172;11.484;2022-12-07T16:48:42;17.93;;;9.70;;
43664;SDS011;29263;48.172;11.484;2022-12-07T16:51:09;13.83;;;8.97;;
43664;SDS011;29263;48.172;11.484;2022-12-07T16:53:37;13.97;;;8.43;;